sensor_id;sensor_type;location;lat;lon;timestamp;P1;durP1;ratioP1;P2;durP2;ratioP2
10711;SDS011;5407;51.234;6.804;2024-02-15T00:01:26;10.97;;;5.20;;
10711;SDS011;5407;51.234;6.804;2024-02-15T00:03:54;10.20;;;5.20;;
10711;SDS011;5407;51.234;6.804;2024-02-15T00:06:21;13.33;;;5.30;;
10711;SDS011;5407;51.234;6.804;2024-02-15T00:08:48;11.17;;;4.97;;
10711;SDS011;5407;51.234;6.804;2024-02-15T00:11:16;10.97;;;5.20;;
10711;SDS011;5407;51.234;6.804;2024-02-15T00:13:43;11.47;;;5.10;;
10711;SDS011;5407;51.234;6.804;2024-02-15T00:16:12;10.00;;;4.63;;
10711;SDS011;5407;51.234;6.804;2024-02-15T00:18:40;16.30;;;5.57;;
10711;SDS011;5407;51.234;6.804;2024-02-15T00:21:07;14.63;;;5.17;;
10711;SDS011;5407;51.234;6.804;2024-02-15T00:23:34;9.97;;;4.80;;
10711;SDS011;5407;51.234;6.804;2024-02-15T00:26:01;11.03;;;5.07;;
10711;SDS011;5407;51.234;6.804;2024-02-15T00:28:29;11.03;;;4.83;;
10711;SDS011;5407;51.234;6.804;2024-02-15T00:30:59;11.27;;;5.00;;
10711;SDS011;5407;51.234;6.804;2024-02-15T00:33:26;10.40;;;4.87;;
10711;SDS011;5407;51.234;6.804;2024-02-15T00:35:53;13.53;;;5.17;;
10711;SDS011;5407;51.234;6.804;2024-02-15T00:38:20;13.03;;;5.43;;
10711;SDS011;5407;51.234;6.804;2024-02-15T00:40:47;8.97;;;4.90;;
10711;SDS011;5407;51.234;6.804;2024-02-15T00:43:14;13.27;;;5.10;;
10711;SDS011;5407;51.234;6.804;2024-02-15T00:45:43;11.83;;;5.83;;
10711;SDS011;5407;51.234;6.804;2024-02-15T00:48:10;13.50;;;5.70;;
10711;SDS011;5407;51.234;6.804;2024-02-15T00:50:37;11.37;;;5.73;;
10711;SDS011;5407;51.234;6.804;2024-02-15T00:53:04;16.27;;;6.07;;
10711;SDS011;5407;51.234;6.804;2024-02-15T00:55:31;12.63;;;5.37;;
10711;SDS011;5407;51.234;6.804;2024-02-15T00:57:58;14.80;;;5.60;;
10711;SDS011;5407;51.234;6.804;2024-02-15T01:00:25;12.47;;;5.73;;
10711;SDS011;5407;51.234;6.804;2024-02-15T01:02:53;14.60;;;5.70;;
10711;SDS011;5407;51.234;6.804;2024-02-15T01:05:20;14.43;;;5.73;;
10711;SDS011;5407;51.234;6.804;2024-02-15T01:07:49;9.10;;;4.50;;
10711;SDS011;5407;51.234;6.804;2024-02-15T01:10:16;16.10;;;5.53;;
10711;SDS011;5407;51.234;6.804;2024-02-15T01:12:43;12.20;;;5.00;;
10711;SDS011;5407;51.234;6.804;2024-02-15T01:15:10;10.23;;;4.57;;
10711;SDS011;5407;51.234;6.804;2024-02-15T01:17:37;13.67;;;4.80;;
10711;SDS011;5407;51.234;6.804;2024-02-15T01:20:06;12.87;;;5.10;;
10711;SDS011;5407;51.234;6.804;2024-02-15T01:22:33;14.33;;;5.10;;
10711;SDS011;5407;51.234;6.804;2024-02-15T01:25:00;14.67;;;4.73;;
10711;SDS011;5407;51.234;6.804;2024-02-15T01:27:27;14.73;;;5.10;;
10711;SDS011;5407;51.234;6.804;2024-02-15T01:29:56;12.40;;;4.73;;
10711;SDS011;5407;51.234;6.804;2024-02-15T01:32:31;15.53;;;5.00;;
10711;SDS011;5407;51.234;6.804;2024-02-15T01:35:00;14.30;;;5.17;;
10711;SDS011;5407;51.234;6.804;2024-02-15T01:37:33;9.47;;;4.80;;
10711;SDS011;5407;51.234;6.804;2024-02-15T01:40:08;12.00;;;5.13;;
10711;SDS011;5407;51.234;6.804;2024-02-15T01:42:38;11.03;;;4.63;;
10711;SDS011;5407;51.234;6.804;2024-02-15T01:45:09;8.60;;;4.57;;
10711;SDS011;5407;51.234;6.804;2024-02-15T01:47:37;8.50;;;4.73;;
10711;SDS011;5407;51.234;6.804;2024-02-15T01:50:06;13.23;;;5.03;;
10711;SDS011;5407;51.234;6.804;2024-02-15T01:52:37;11.33;;;4.90;;
10711;SDS011;5407;51.234;6.804;2024-02-15T01:55:16;10.20;;;4.77;;
10711;SDS011;5407;51.234;6.804;2024-02-15T02:11:19;10.30;;;4.87;;
10711;SDS011;5407;51.234;6.804;2024-02-15T02:16:31;11.47;;;4.57;;
10711;SDS011;5407;51.234;6.804;2024-02-15T02:18:58;13.23;;;4.80;;
10711;SDS011;5407;51.234;6.804;2024-02-15T02:21:26;11.97;;;4.70;;
10711;SDS011;5407;51.234;6.804;2024-02-15T02:23:56;12.20;;;4.83;;
10711;SDS011;5407;51.234;6.804;2024-02-15T02:29:06;14.20;;;4.23;;
10711;SDS011;5407;51.234;6.804;2024-02-15T02:31:36;10.63;;;4.70;;
10711;SDS011;5407;51.234;6.804;2024-02-15T02:34:03;13.37;;;5.00;;
10711;SDS011;5407;51.234;6.804;2024-02-15T02:36:32;9.10;;;3.97;;
10711;SDS011;5407;51.234;6.804;2024-02-15T02:41:46;12.13;;;4.50;;
10711;SDS011;5407;51.234;6.804;2024-02-15T02:44:18;8.63;;;4.53;;
10711;SDS011;5407;51.234;6.804;2024-02-15T02:46:58;11.43;;;3.77;;
10711;SDS011;5407;51.234;6.804;2024-02-15T02:49:26;15.47;;;4.87;;
10711;SDS011;5407;51.234;6.804;2024-02-15T02:51:56;12.53;;;4.33;;
10711;SDS011;5407;51.234;6.804;2024-02-15T02:54:23;12.63;;;4.53;;
10711;SDS011;5407;51.234;6.804;2024-02-15T02:56:51;11.47;;;4.57;;
10711;SDS011;5407;51.234;6.804;2024-02-15T03:15:58;8.83;;;5.13;;
10711;SDS011;5407;51.234;6.804;2024-02-15T03:18:35;13.43;;;4.90;;
10711;SDS011;5407;51.234;6.804;2024-02-15T03:32:22;12.73;;;5.60;;
10711;SDS011;5407;51.234;6.804;2024-02-15T03:43:06;9.30;;;5.60;;
10711;SDS011;5407;51.234;6.804;2024-02-15T03:45:39;11.10;;;5.90;;
10711;SDS011;5407;51.234;6.804;2024-02-15T03:48:21;7.90;;;4.97;;
10711;SDS011;5407;51.234;6.804;2024-02-15T03:51:02;9.80;;;5.30;;
10711;SDS011;5407;51.234;6.804;2024-02-15T03:53:40;7.73;;;4.77;;
10711;SDS011;5407;51.234;6.804;2024-02-15T03:56:14;12.07;;;5.60;;
10711;SDS011;5407;51.234;6.804;2024-02-15T04:04:32;9.00;;;4.80;;
10711;SDS011;5407;51.234;6.804;2024-02-15T04:09:57;7.03;;;4.70;;
10711;SDS011;5407;51.234;6.804;2024-02-15T04:34:11;7.57;;;4.07;;
10711;SDS011;5407;51.234;6.804;2024-02-15T04:36:39;5.47;;;3.87;;
10711;SDS011;5407;51.234;6.804;2024-02-15T04:39:14;8.63;;;4.60;;
10711;SDS011;5407;51.234;6.804;2024-02-15T04:41:51;10.90;;;4.50;;
10711;SDS011;5407;51.234;6.804;2024-02-15T04:44:23;6.53;;;3.93;;
10711;SDS011;5407;51.234;6.804;2024-02-15T04:46:54;7.27;;;3.97;;
10711;SDS011;5407;51.234;6.804;2024-02-15T04:49:28;9.63;;;4.30;;
10711;SDS011;5407;51.234;6.804;2024-02-15T04:54:52;8.10;;;4.03;;
10711;SDS011;5407;51.234;6.804;2024-02-15T04:57:30;6.37;;;3.90;;
10711;SDS011;5407;51.234;6.804;2024-02-15T05:00:08;9.67;;;3.90;;
10711;SDS011;5407;51.234;6.804;2024-02-15T05:05:24;7.03;;;3.50;;
10711;SDS011;5407;51.234;6.804;2024-02-15T05:07:53;7.30;;;3.97;;
10711;SDS011;5407;51.234;6.804;2024-02-15T05:10:26;7.37;;;3.80;;
10711;SDS011;5407;51.234;6.804;2024-02-15T05:12:55;6.60;;;3.50;;
10711;SDS011;5407;51.234;6.804;2024-02-15T05:15:23;7.33;;;4.00;;
10711;SDS011;5407;51.234;6.804;2024-02-15T05:17:52;5.60;;;3.67;;
10711;SDS011;5407;51.234;6.804;2024-02-15T05:20:19;7.97;;;3.60;;
10711;SDS011;5407;51.234;6.804;2024-02-15T05:22:49;7.33;;;4.07;;
10711;SDS011;5407;51.234;6.804;2024-02-15T05:25:22;9.87;;;3.93;;
10711;SDS011;5407;51.234;6.804;2024-02-15T05:27:53;7.10;;;3.63;;
10711;SDS011;5407;51.234;6.804;2024-02-15T05:30:26;8.90;;;3.70;;
10711;SDS011;5407;51.234;6.804;2024-02-15T05:33:16;7.20;;;4.07;;
10711;SDS011;5407;51.234;6.804;2024-02-15T05:35:49;6.13;;;3.63;;
10711;SDS011;5407;51.234;6.804;2024-02-15T05:38:18;6.43;;;3.83;;
10711;SDS011;5407;51.234;6.804;2024-02-15T05:40:45;9.13;;;4.10;;
10711;SDS011;5407;51.234;6.804;2024-02-15T05:43:13;7.30;;;4.20;;
10711;SDS011;5407;51.234;6.804;2024-02-15T05:45:42;7.67;;;4.17;;
10711;SDS011;5407;51.234;6.804;2024-02-15T05:48:11;6.50;;;3.90;;
10711;SDS011;5407;51.234;6.804;2024-02-15T05:50:50;10.93;;;4.10;;
10711;SDS011;5407;51.234;6.804;2024-02-15T05:53:21;7.43;;;3.90;;
10711;SDS011;5407;51.234;6.804;2024-02-15T05:55:48;5.57;;;3.87;;
10711;SDS011;5407;51.234;6.804;2024-02-15T05:58:16;6.40;;;3.60;;
10711;SDS011;5407;51.234;6.804;2024-02-15T06:00:43;6.73;;;3.87;;
10711;SDS011;5407;51.234;6.804;2024-02-15T06:03:15;8.87;;;3.70;;
10711;SDS011;5407;51.234;6.804;2024-02-15T06:05:47;9.90;;;3.93;;
10711;SDS011;5407;51.234;6.804;2024-02-15T06:08:15;10.30;;;3.80;;
10711;SDS011;5407;51.234;6.804;2024-02-15T06:10:50;10.67;;;4.23;;
10711;SDS011;5407;51.234;6.804;2024-02-15T06:13:21;6.40;;;4.00;;
10711;SDS011;5407;51.234;6.804;2024-02-15T06:15:51;8.63;;;4.20;;
10711;SDS011;5407;51.234;6.804;2024-02-15T06:21:03;11.17;;;4.20;;
10711;SDS011;5407;51.234;6.804;2024-02-15T06:23:31;6.77;;;4.00;;
10711;SDS011;5407;51.234;6.804;2024-02-15T06:26:00;8.83;;;4.10;;
10711;SDS011;5407;51.234;6.804;2024-02-15T06:28:33;9.90;;;4.07;;
10711;SDS011;5407;51.234;6.804;2024-02-15T06:31:19;6.63;;;3.83;;
10711;SDS011;5407;51.234;6.804;2024-02-15T06:34:05;8.50;;;3.77;;
10711;SDS011;5407;51.234;6.804;2024-02-15T06:36:53;7.50;;;3.70;;
10711;SDS011;5407;51.234;6.804;2024-02-15T06:39:39;8.80;;;4.00;;
10711;SDS011;5407;51.234;6.804;2024-02-15T06:42:16;8.17;;;4.33;;
10711;SDS011;5407;51.234;6.804;2024-02-15T06:44:45;7.90;;;3.90;;
10711;SDS011;5407;51.234;6.804;2024-02-15T06:47:14;8.77;;;3.87;;
10711;SDS011;5407;51.234;6.804;2024-02-15T06:49:44;7.83;;;3.77;;
10711;SDS011;5407;51.234;6.804;2024-02-15T06:52:16;8.73;;;4.03;;
10711;SDS011;5407;51.234;6.804;2024-02-15T06:54:48;7.70;;;3.67;;
10711;SDS011;5407;51.234;6.804;2024-02-15T06:57:25;8.53;;;3.60;;
10711;SDS011;5407;51.234;6.804;2024-02-15T07:00:00;7.27;;;3.77;;
10711;SDS011;5407;51.234;6.804;2024-02-15T07:02:28;8.70;;;3.53;;
10711;SDS011;5407;51.234;6.804;2024-02-15T07:04:55;8.87;;;3.70;;
10711;SDS011;5407;51.234;6.804;2024-02-15T07:07:22;7.47;;;3.80;;
10711;SDS011;5407;51.234;6.804;2024-02-15T07:09:49;8.87;;;3.97;;
10711;SDS011;5407;51.234;6.804;2024-02-15T07:12:16;10.97;;;3.93;;
10711;SDS011;5407;51.234;6.804;2024-02-15T07:14:46;7.67;;;4.10;;
10711;SDS011;5407;51.234;6.804;2024-02-15T07:17:13;9.30;;;4.00;;
10711;SDS011;5407;51.234;6.804;2024-02-15T07:19:41;8.70;;;4.07;;
10711;SDS011;5407;51.234;6.804;2024-02-15T07:22:11;9.47;;;3.90;;
10711;SDS011;5407;51.234;6.804;2024-02-15T07:24:45;10.67;;;3.73;;
10711;SDS011;5407;51.234;6.804;2024-02-15T07:29:53;9.30;;;3.80;;
10711;SDS011;5407;51.234;6.804;2024-02-15T07:32:22;12.37;;;4.50;;
10711;SDS011;5407;51.234;6.804;2024-02-15T07:34:51;8.53;;;3.77;;
10711;SDS011;5407;51.234;6.804;2024-02-15T07:37:25;8.90;;;3.83;;
10711;SDS011;5407;51.234;6.804;2024-02-15T07:39:58;10.37;;;3.80;;
10711;SDS011;5407;51.234;6.804;2024-02-15T07:42:35;8.40;;;3.60;;
10711;SDS011;5407;51.234;6.804;2024-02-15T07:45:17;11.60;;;3.73;;
10711;SDS011;5407;51.234;6.804;2024-02-15T07:47:49;11.53;;;4.40;;
10711;SDS011;5407;51.234;6.804;2024-02-15T07:50:24;11.43;;;4.20;;
10711;SDS011;5407;51.234;6.804;2024-02-15T07:52:51;13.30;;;4.10;;
10711;SDS011;5407;51.234;6.804;2024-02-15T07:55:18;14.90;;;4.37;;
10711;SDS011;5407;51.234;6.804;2024-02-15T07:57:45;9.67;;;4.30;;
10711;SDS011;5407;51.234;6.804;2024-02-15T08:00:15;12.73;;;4.30;;
10711;SDS011;5407;51.234;6.804;2024-02-15T08:02:42;10.03;;;4.43;;
10711;SDS011;5407;51.234;6.804;2024-02-15T08:05:09;9.87;;;4.67;;
10711;SDS011;5407;51.234;6.804;2024-02-15T08:07:37;10.50;;;4.40;;
10711;SDS011;5407;51.234;6.804;2024-02-15T08:10:07;12.70;;;4.67;;
10711;SDS011;5407;51.234;6.804;2024-02-15T08:12:38;10.87;;;4.23;;
10711;SDS011;5407;51.234;6.804;2024-02-15T08:15:06;11.60;;;4.23;;
10711;SDS011;5407;51.234;6.804;2024-02-15T08:17:39;10.33;;;4.13;;
10711;SDS011;5407;51.234;6.804;2024-02-15T08:20:07;12.07;;;4.23;;
10711;SDS011;5407;51.234;6.804;2024-02-15T08:22:36;9.07;;;4.23;;
10711;SDS011;5407;51.234;6.804;2024-02-15T08:25:05;9.77;;;4.20;;
10711;SDS011;5407;51.234;6.804;2024-02-15T08:27:36;12.00;;;4.20;;
10711;SDS011;5407;51.234;6.804;2024-02-15T08:30:08;14.13;;;5.37;;
10711;SDS011;5407;51.234;6.804;2024-02-15T08:32:38;11.30;;;4.90;;
10711;SDS011;5407;51.234;6.804;2024-02-15T08:35:07;11.30;;;4.30;;
10711;SDS011;5407;51.234;6.804;2024-02-15T08:37:35;9.73;;;4.50;;
10711;SDS011;5407;51.234;6.804;2024-02-15T08:40:04;10.13;;;4.27;;
10711;SDS011;5407;51.234;6.804;2024-02-15T08:42:36;10.20;;;4.37;;
10711;SDS011;5407;51.234;6.804;2024-02-15T08:45:04;9.20;;;4.33;;
10711;SDS011;5407;51.234;6.804;2024-02-15T08:47:34;10.63;;;4.23;;
10711;SDS011;5407;51.234;6.804;2024-02-15T08:50:06;12.93;;;4.57;;
10711;SDS011;5407;51.234;6.804;2024-02-15T08:52:35;10.90;;;4.10;;
10711;SDS011;5407;51.234;6.804;2024-02-15T08:55:03;11.60;;;4.50;;
10711;SDS011;5407;51.234;6.804;2024-02-15T08:57:32;8.77;;;3.83;;
10711;SDS011;5407;51.234;6.804;2024-02-15T08:59:59;11.00;;;4.10;;
10711;SDS011;5407;51.234;6.804;2024-02-15T09:02:27;8.77;;;3.97;;
10711;SDS011;5407;51.234;6.804;2024-02-15T09:04:54;9.70;;;4.13;;
10711;SDS011;5407;51.234;6.804;2024-02-15T09:07:22;10.37;;;4.10;;
10711;SDS011;5407;51.234;6.804;2024-02-15T09:09:49;11.47;;;3.93;;
10711;SDS011;5407;51.234;6.804;2024-02-15T09:12:16;9.17;;;4.57;;
10711;SDS011;5407;51.234;6.804;2024-02-15T09:14:43;10.20;;;4.30;;
10711;SDS011;5407;51.234;6.804;2024-02-15T09:17:09;10.03;;;3.93;;
10711;SDS011;5407;51.234;6.804;2024-02-15T09:19:36;15.17;;;4.03;;
10711;SDS011;5407;51.234;6.804;2024-02-15T09:22:03;11.37;;;4.07;;
10711;SDS011;5407;51.234;6.804;2024-02-15T09:24:33;12.93;;;4.33;;
10711;SDS011;5407;51.234;6.804;2024-02-15T09:27:00;11.03;;;4.40;;
10711;SDS011;5407;51.234;6.804;2024-02-15T09:29:28;11.53;;;4.50;;
10711;SDS011;5407;51.234;6.804;2024-02-15T09:31:55;14.47;;;4.97;;
10711;SDS011;5407;51.234;6.804;2024-02-15T09:34:23;11.57;;;4.30;;
10711;SDS011;5407;51.234;6.804;2024-02-15T09:36:51;13.57;;;4.07;;
10711;SDS011;5407;51.234;6.804;2024-02-15T09:39:19;11.80;;;4.70;;
10711;SDS011;5407;51.234;6.804;2024-02-15T09:41:47;10.43;;;3.80;;
10711;SDS011;5407;51.234;6.804;2024-02-15T09:44:20;10.50;;;4.00;;
10711;SDS011;5407;51.234;6.804;2024-02-15T09:46:55;10.03;;;3.97;;
10711;SDS011;5407;51.234;6.804;2024-02-15T09:49:35;9.00;;;3.90;;
10711;SDS011;5407;51.234;6.804;2024-02-15T09:52:06;10.30;;;4.10;;
10711;SDS011;5407;51.234;6.804;2024-02-15T09:54:38;7.63;;;3.40;;
10711;SDS011;5407;51.234;6.804;2024-02-15T09:57:11;11.47;;;4.17;;
10711;SDS011;5407;51.234;6.804;2024-02-15T09:59:43;10.97;;;3.73;;
10711;SDS011;5407;51.234;6.804;2024-02-15T10:02:17;7.60;;;3.60;;
10711;SDS011;5407;51.234;6.804;2024-02-15T10:04:45;7.17;;;3.60;;
10711;SDS011;5407;51.234;6.804;2024-02-15T10:26:45;8.83;;;3.30;;
10711;SDS011;5407;51.234;6.804;2024-02-15T10:29:16;8.30;;;3.40;;
10711;SDS011;5407;51.234;6.804;2024-02-15T10:31:52;10.77;;;3.97;;
10711;SDS011;5407;51.234;6.804;2024-02-15T10:34:20;7.77;;;3.50;;
10711;SDS011;5407;51.234;6.804;2024-02-15T10:36:48;10.10;;;3.27;;
10711;SDS011;5407;51.234;6.804;2024-02-15T10:39:16;11.67;;;3.30;;
10711;SDS011;5407;51.234;6.804;2024-02-15T10:42:00;8.10;;;3.43;;
10711;SDS011;5407;51.234;6.804;2024-02-15T10:44:30;11.10;;;3.53;;
10711;SDS011;5407;51.234;6.804;2024-02-15T10:47:00;10.80;;;3.63;;
10711;SDS011;5407;51.234;6.804;2024-02-15T10:49:38;8.63;;;3.50;;
10711;SDS011;5407;51.234;6.804;2024-02-15T10:52:06;7.57;;;3.23;;
10711;SDS011;5407;51.234;6.804;2024-02-15T10:54:40;5.57;;;3.17;;
10711;SDS011;5407;51.234;6.804;2024-02-15T10:57:10;7.27;;;2.93;;
10711;SDS011;5407;51.234;6.804;2024-02-15T10:59:42;9.53;;;3.20;;
10711;SDS011;5407;51.234;6.804;2024-02-15T11:02:23;7.40;;;3.23;;
10711;SDS011;5407;51.234;6.804;2024-02-15T11:04:54;11.77;;;3.63;;
10711;SDS011;5407;51.234;6.804;2024-02-15T11:07:27;8.00;;;3.23;;
10711;SDS011;5407;51.234;6.804;2024-02-15T11:09:55;7.10;;;3.03;;
10711;SDS011;5407;51.234;6.804;2024-02-15T11:12:24;6.73;;;3.00;;
10711;SDS011;5407;51.234;6.804;2024-02-15T11:14:52;9.17;;;2.80;;
10711;SDS011;5407;51.234;6.804;2024-02-15T11:23:23;10.17;;;3.30;;
10711;SDS011;5407;51.234;6.804;2024-02-15T11:25:52;8.50;;;2.60;;
10711;SDS011;5407;51.234;6.804;2024-02-15T11:40:17;8.73;;;2.70;;
10711;SDS011;5407;51.234;6.804;2024-02-15T11:42:45;6.03;;;2.20;;
10711;SDS011;5407;51.234;6.804;2024-02-15T11:45:14;9.30;;;2.70;;
10711;SDS011;5407;51.234;6.804;2024-02-15T11:47:43;8.13;;;2.53;;
10711;SDS011;5407;51.234;6.804;2024-02-15T11:50:14;8.10;;;2.30;;
10711;SDS011;5407;51.234;6.804;2024-02-15T11:52:41;7.27;;;2.60;;
10711;SDS011;5407;51.234;6.804;2024-02-15T11:55:08;6.75;;;2.45;;
10711;SDS011;5407;51.234;6.804;2024-02-15T11:57:38;6.13;;;2.63;;
10711;SDS011;5407;51.234;6.804;2024-02-15T12:00:20;4.40;;;2.37;;
10711;SDS011;5407;51.234;6.804;2024-02-15T12:03:05;6.95;;;2.40;;
10711;SDS011;5407;51.234;6.804;2024-02-15T12:05:50;6.53;;;2.47;;
10711;SDS011;5407;51.234;6.804;2024-02-15T12:08:35;5.03;;;2.03;;
10711;SDS011;5407;51.234;6.804;2024-02-15T12:11:20;5.47;;;2.13;;
10711;SDS011;5407;51.234;6.804;2024-02-15T12:14:04;9.73;;;2.47;;
10711;SDS011;5407;51.234;6.804;2024-02-15T12:16:59;7.90;;;2.65;;
10711;SDS011;5407;51.234;6.804;2024-02-15T12:19:47;6.75;;;2.40;;
10711;SDS011;5407;51.234;6.804;2024-02-15T12:22:16;6.43;;;2.30;;
10711;SDS011;5407;51.234;6.804;2024-02-15T12:24:53;8.97;;;2.70;;
10711;SDS011;5407;51.234;6.804;2024-02-15T12:27:21;7.07;;;2.40;;
10711;SDS011;5407;51.234;6.804;2024-02-15T12:29:55;6.77;;;2.10;;
10711;SDS011;5407;51.234;6.804;2024-02-15T12:32:24;6.10;;;2.50;;
10711;SDS011;5407;51.234;6.804;2024-02-15T12:34:52;6.23;;;2.10;;
10711;SDS011;5407;51.234;6.804;2024-02-15T12:37:20;6.77;;;2.63;;
10711;SDS011;5407;51.234;6.804;2024-02-15T12:39:49;6.73;;;2.50;;
10711;SDS011;5407;51.234;6.804;2024-02-15T12:42:16;10.65;;;2.65;;
10711;SDS011;5407;51.234;6.804;2024-02-15T12:44:45;7.90;;;2.43;;
10711;SDS011;5407;51.234;6.804;2024-02-15T12:47:19;5.07;;;2.27;;
10711;SDS011;5407;51.234;6.804;2024-02-15T12:49:48;6.50;;;2.37;;
10711;SDS011;5407;51.234;6.804;2024-02-15T12:52:32;8.07;;;2.57;;
10711;SDS011;5407;51.234;6.804;2024-02-15T12:55:06;6.03;;;2.40;;
10711;SDS011;5407;51.234;6.804;2024-02-15T12:57:36;8.60;;;2.70;;
10711;SDS011;5407;51.234;6.804;2024-02-15T13:00:06;5.90;;;2.50;;
10711;SDS011;5407;51.234;6.804;2024-02-15T13:02:36;8.47;;;2.20;;
10711;SDS011;5407;51.234;6.804;2024-02-15T13:05:05;4.30;;;2.00;;
10711;SDS011;5407;51.234;6.804;2024-02-15T13:07:33;5.03;;;2.17;;
10711;SDS011;5407;51.234;6.804;2024-02-15T13:10:00;5.27;;;2.27;;
10711;SDS011;5407;51.234;6.804;2024-02-15T13:12:28;8.63;;;2.50;;
10711;SDS011;5407;51.234;6.804;2024-02-15T13:14:55;5.73;;;2.23;;
10711;SDS011;5407;51.234;6.804;2024-02-15T13:17:23;8.17;;;2.37;;
10711;SDS011;5407;51.234;6.804;2024-02-15T13:19:52;7.77;;;2.30;;
10711;SDS011;5407;51.234;6.804;2024-02-15T13:22:28;5.63;;;2.30;;
10711;SDS011;5407;51.234;6.804;2024-02-15T13:24:56;4.70;;;2.20;;
10711;SDS011;5407;51.234;6.804;2024-02-15T13:27:23;4.43;;;1.93;;
10711;SDS011;5407;51.234;6.804;2024-02-15T13:29:50;5.07;;;2.27;;
10711;SDS011;5407;51.234;6.804;2024-02-15T13:32:18;4.27;;;1.90;;
10711;SDS011;5407;51.234;6.804;2024-02-15T13:34:46;7.27;;;1.90;;
10711;SDS011;5407;51.234;6.804;2024-02-15T13:37:17;7.13;;;2.03;;
10711;SDS011;5407;51.234;6.804;2024-02-15T13:39:47;7.43;;;2.40;;
10711;SDS011;5407;51.234;6.804;2024-02-15T13:42:14;5.13;;;2.17;;
10711;SDS011;5407;51.234;6.804;2024-02-15T13:44:42;8.30;;;2.30;;
10711;SDS011;5407;51.234;6.804;2024-02-15T13:47:09;7.90;;;2.33;;
10711;SDS011;5407;51.234;6.804;2024-02-15T13:49:37;10.93;;;2.60;;
10711;SDS011;5407;51.234;6.804;2024-02-15T13:52:04;9.40;;;2.57;;
10711;SDS011;5407;51.234;6.804;2024-02-15T13:54:32;6.33;;;2.50;;
10711;SDS011;5407;51.234;6.804;2024-02-15T13:57:00;5.47;;;2.20;;
10711;SDS011;5407;51.234;6.804;2024-02-15T13:59:27;5.70;;;2.37;;
10711;SDS011;5407;51.234;6.804;2024-02-15T14:01:55;3.37;;;2.20;;
10711;SDS011;5407;51.234;6.804;2024-02-15T14:04:22;7.20;;;2.23;;
10711;SDS011;5407;51.234;6.804;2024-02-15T14:06:49;5.60;;;2.13;;
10711;SDS011;5407;51.234;6.804;2024-02-15T14:09:15;8.63;;;2.50;;
10711;SDS011;5407;51.234;6.804;2024-02-15T14:11:43;4.00;;;1.90;;
10711;SDS011;5407;51.234;6.804;2024-02-15T14:14:11;7.73;;;2.40;;
10711;SDS011;5407;51.234;6.804;2024-02-15T14:16:38;8.73;;;2.30;;
10711;SDS011;5407;51.234;6.804;2024-02-15T14:19:16;8.80;;;2.10;;
10711;SDS011;5407;51.234;6.804;2024-02-15T14:21:43;4.60;;;2.33;;
10711;SDS011;5407;51.234;6.804;2024-02-15T14:24:10;9.13;;;2.37;;
10711;SDS011;5407;51.234;6.804;2024-02-15T14:26:38;6.50;;;2.27;;
10711;SDS011;5407;51.234;6.804;2024-02-15T14:29:06;3.43;;;2.23;;
10711;SDS011;5407;51.234;6.804;2024-02-15T14:31:36;5.13;;;2.30;;
10711;SDS011;5407;51.234;6.804;2024-02-15T14:34:20;4.33;;;2.10;;
10711;SDS011;5407;51.234;6.804;2024-02-15T14:36:47;6.40;;;2.23;;
10711;SDS011;5407;51.234;6.804;2024-02-15T14:39:13;6.37;;;2.00;;
10711;SDS011;5407;51.234;6.804;2024-02-15T14:41:40;6.33;;;2.40;;
10711;SDS011;5407;51.234;6.804;2024-02-15T14:44:08;4.87;;;2.20;;
10711;SDS011;5407;51.234;6.804;2024-02-15T14:46:39;4.63;;;2.27;;
10711;SDS011;5407;51.234;6.804;2024-02-15T14:49:06;5.20;;;2.47;;
10711;SDS011;5407;51.234;6.804;2024-02-15T14:51:33;4.87;;;2.00;;
10711;SDS011;5407;51.234;6.804;2024-02-15T14:54:02;3.23;;;2.10;;
10711;SDS011;5407;51.234;6.804;2024-02-15T14:56:29;6.10;;;2.20;;
10711;SDS011;5407;51.234;6.804;2024-02-15T14:58:58;9.82;;;2.28;;
10711;SDS011;5407;51.234;6.804;2024-02-15T15:01:25;6.53;;;2.10;;
10711;SDS011;5407;51.234;6.804;2024-02-15T15:03:54;5.77;;;2.03;;
10711;SDS011;5407;51.234;6.804;2024-02-15T15:06:23;5.80;;;1.90;;
10711;SDS011;5407;51.234;6.804;2024-02-15T15:09:09;4.13;;;2.00;;
10711;SDS011;5407;51.234;6.804;2024-02-15T15:11:54;6.70;;;2.00;;
10711;SDS011;5407;51.234;6.804;2024-02-15T15:14:39;6.73;;;1.90;;
10711;SDS011;5407;51.234;6.804;2024-02-15T15:17:07;4.37;;;1.90;;
10711;SDS011;5407;51.234;6.804;2024-02-15T15:19:37;3.83;;;2.10;;
10711;SDS011;5407;51.234;6.804;2024-02-15T15:22:03;4.97;;;2.00;;
10711;SDS011;5407;51.234;6.804;2024-02-15T15:24:32;4.60;;;2.10;;
10711;SDS011;5407;51.234;6.804;2024-02-15T15:26:59;5.97;;;2.07;;
10711;SDS011;5407;51.234;6.804;2024-02-15T15:29:26;4.40;;;1.97;;
10711;SDS011;5407;51.234;6.804;2024-02-15T15:31:53;3.30;;;1.77;;
10711;SDS011;5407;51.234;6.804;2024-02-15T15:34:21;6.33;;;2.20;;
10711;SDS011;5407;51.234;6.804;2024-02-15T15:36:49;5.07;;;1.97;;
10711;SDS011;5407;51.234;6.804;2024-02-15T15:39:19;5.80;;;1.80;;
10711;SDS011;5407;51.234;6.804;2024-02-15T15:41:49;6.70;;;2.20;;
10711;SDS011;5407;51.234;6.804;2024-02-15T15:44:19;4.13;;;2.00;;
10711;SDS011;5407;51.234;6.804;2024-02-15T15:46:48;6.20;;;2.00;;
10711;SDS011;5407;51.234;6.804;2024-02-15T15:49:17;5.40;;;2.10;;
10711;SDS011;5407;51.234;6.804;2024-02-15T15:51:44;8.30;;;2.10;;
10711;SDS011;5407;51.234;6.804;2024-02-15T15:54:13;4.90;;;1.87;;
10711;SDS011;5407;51.234;6.804;2024-02-15T15:56:40;4.30;;;2.03;;
10711;SDS011;5407;51.234;6.804;2024-02-15T15:59:07;7.03;;;1.90;;
10711;SDS011;5407;51.234;6.804;2024-02-15T16:01:34;5.53;;;1.87;;
10711;SDS011;5407;51.234;6.804;2024-02-15T16:04:02;5.87;;;2.10;;
10711;SDS011;5407;51.234;6.804;2024-02-15T16:06:29;4.63;;;1.73;;
10711;SDS011;5407;51.234;6.804;2024-02-15T16:08:56;7.00;;;1.63;;
10711;SDS011;5407;51.234;6.804;2024-02-15T16:11:24;5.20;;;1.97;;
10711;SDS011;5407;51.234;6.804;2024-02-15T16:13:51;3.93;;;2.00;;
10711;SDS011;5407;51.234;6.804;2024-02-15T16:16:20;3.90;;;2.00;;
10711;SDS011;5407;51.234;6.804;2024-02-15T16:18:49;3.40;;;1.80;;
10711;SDS011;5407;51.234;6.804;2024-02-15T16:21:16;7.20;;;2.33;;
10711;SDS011;5407;51.234;6.804;2024-02-15T16:23:44;5.83;;;2.10;;
10711;SDS011;5407;51.234;6.804;2024-02-15T16:26:11;3.27;;;1.60;;
10711;SDS011;5407;51.234;6.804;2024-02-15T16:28:40;5.13;;;1.97;;
10711;SDS011;5407;51.234;6.804;2024-02-15T16:31:07;5.80;;;2.03;;
10711;SDS011;5407;51.234;6.804;2024-02-15T16:33:34;4.37;;;2.20;;
10711;SDS011;5407;51.234;6.804;2024-02-15T16:36:02;4.60;;;1.90;;
10711;SDS011;5407;51.234;6.804;2024-02-15T16:38:32;5.23;;;1.93;;
10711;SDS011;5407;51.234;6.804;2024-02-15T16:41:01;3.87;;;2.00;;
10711;SDS011;5407;51.234;6.804;2024-02-15T16:43:28;6.03;;;1.90;;
10711;SDS011;5407;51.234;6.804;2024-02-15T16:45:57;5.50;;;2.20;;
10711;SDS011;5407;51.234;6.804;2024-02-15T16:48:24;6.00;;;1.90;;
10711;SDS011;5407;51.234;6.804;2024-02-15T16:50:51;2.87;;;1.63;;
10711;SDS011;5407;51.234;6.804;2024-02-15T16:53:18;6.23;;;1.90;;
10711;SDS011;5407;51.234;6.804;2024-02-15T16:55:45;5.67;;;2.37;;
10711;SDS011;5407;51.234;6.804;2024-02-15T16:58:12;5.63;;;2.03;;
10711;SDS011;5407;51.234;6.804;2024-02-15T17:00:39;3.43;;;1.90;;
10711;SDS011;5407;51.234;6.804;2024-02-15T17:03:07;6.73;;;2.00;;
10711;SDS011;5407;51.234;6.804;2024-02-15T17:05:38;4.43;;;2.13;;
10711;SDS011;5407;51.234;6.804;2024-02-15T17:08:06;4.47;;;2.30;;
10711;SDS011;5407;51.234;6.804;2024-02-15T17:10:35;7.47;;;2.40;;
10711;SDS011;5407;51.234;6.804;2024-02-15T17:13:02;4.87;;;1.80;;
10711;SDS011;5407;51.234;6.804;2024-02-15T17:15:31;7.83;;;2.53;;
10711;SDS011;5407;51.234;6.804;2024-02-15T17:17:59;7.33;;;3.00;;
10711;SDS011;5407;51.234;6.804;2024-02-15T17:20:27;7.60;;;4.03;;
10711;SDS011;5407;51.234;6.804;2024-02-15T17:22:54;5.00;;;2.10;;
10711;SDS011;5407;51.234;6.804;2024-02-15T17:25:22;5.23;;;2.40;;
10711;SDS011;5407;51.234;6.804;2024-02-15T17:27:50;5.17;;;2.00;;
10711;SDS011;5407;51.234;6.804;2024-02-15T17:30:17;4.93;;;2.70;;
10711;SDS011;5407;51.234;6.804;2024-02-15T17:32:44;3.23;;;1.73;;